createdAt,value
2019-04-26T00:05:07.851Z,9.93
2019-04-26T00:15:07.713Z,9.93
2019-04-26T00:25:07.778Z,9.93
2019-04-26T00:35:07.795Z,9.87
2019-04-26T00:45:07.713Z,9.84
2019-04-26T00:55:07.701Z,9.89
2019-04-26T01:05:07.728Z,9.86
2019-04-26T01:15:07.740Z,9.81
2019-04-26T01:25:07.706Z,9.81
2019-04-26T01:35:07.658Z,9.72
2019-04-26T01:45:07.732Z,9.71
2019-04-26T01:55:07.826Z,9.63
2019-04-26T02:05:07.655Z,9.60
2019-04-26T02:15:07.736Z,9.61
2019-04-26T02:25:07.690Z,9.60
2019-04-26T02:35:07.645Z,9.56
2019-04-26T02:45:07.756Z,9.53
2019-04-26T02:55:07.725Z,9.58
2019-04-26T03:05:07.663Z,9.59
2019-04-26T03:15:14.155Z,9.60
2019-04-26T03:25:07.699Z,9.64
2019-04-26T03:35:07.851Z,9.64
2019-04-26T03:45:07.743Z,9.64
2019-04-26T03:55:07.717Z,9.59
2019-04-26T04:05:07.794Z,9.58
2019-04-26T04:15:07.742Z,9.50
2019-04-26T04:25:07.696Z,9.37
2019-04-26T04:35:08.410Z,9.31
2019-04-26T04:45:07.769Z,9.30
2019-04-26T04:55:08.177Z,9.22
2019-04-26T05:05:07.733Z,9.13
2019-04-26T05:15:07.742Z,9.01
2019-04-26T05:25:07.810Z,9.05
2019-04-26T05:35:07.670Z,9.07
2019-04-26T05:45:07.781Z,9.13
2019-04-26T05:55:09.449Z,9.17
2019-04-26T06:05:08.396Z,9.17
2019-04-26T06:15:07.663Z,9.19
2019-04-26T06:25:08.524Z,9.38
2019-04-26T06:35:09.520Z,9.48
2019-04-26T06:45:07.666Z,9.61
2019-04-26T06:55:07.701Z,9.79
2019-04-26T07:05:07.722Z,9.93
2019-04-26T07:15:07.999Z,10.06
2019-04-26T07:25:08.968Z,10.21
2019-04-26T07:35:08.717Z,10.11
2019-04-26T07:45:07.732Z,10.10
2019-04-26T07:55:08.647Z,10.28
2019-04-26T08:05:07.666Z,10.69
2019-04-26T08:15:07.756Z,10.71
2019-04-26T08:25:08.226Z,11.00
2019-04-26T08:35:14.365Z,10.96
2019-04-26T08:45:10.090Z,11.19
2019-04-26T08:55:07.681Z,11.67
2019-04-26T09:05:07.656Z,11.81
2019-04-26T09:15:07.713Z,11.69
2019-04-26T09:25:07.691Z,11.88
2019-04-26T09:35:11.374Z,12.14
2019-04-26T09:45:07.743Z,12.08
2019-04-26T09:55:07.715Z,12.56
2019-04-26T10:05:08.070Z,12.76
2019-04-26T10:15:07.701Z,13.06
2019-04-26T10:25:15.918Z,13.93
2019-04-26T10:35:07.936Z,13.54
2019-04-26T10:45:10.433Z,14.09
2019-04-26T10:55:07.682Z,14.24
2019-04-26T11:05:07.632Z,14.84
2019-04-26T11:15:07.706Z,14.41
2019-04-26T11:25:07.691Z,14.20
2019-04-26T11:35:08.609Z,15.50
2019-04-26T11:45:10.783Z,14.88
2019-04-26T11:55:07.705Z,15.05
2019-04-26T12:05:07.762Z,15.36
2019-04-26T12:15:08.410Z,16.32
2019-04-26T12:25:08.299Z,16.27
2019-04-26T12:35:09.704Z,16.98
2019-04-26T12:45:07.857Z,17.02
2019-04-26T12:55:07.811Z,16.99
2019-04-26T13:05:07.764Z,16.47
2019-04-26T13:15:08.031Z,16.74
2019-04-26T13:25:15.296Z,17.27
2019-04-26T13:35:11.301Z,17.26
2019-04-26T13:45:07.825Z,18.45
2019-04-26T13:55:08.810Z,18.04
2019-04-26T14:05:11.053Z,18.72
2019-04-26T14:15:08.498Z,19.29
2019-04-26T14:25:07.799Z,20.28
2019-04-26T14:35:11.494Z,18.39
2019-04-26T14:45:07.727Z,17.03
2019-04-26T14:55:07.677Z,16.85
2019-04-26T15:05:09.345Z,18.42
2019-04-26T15:15:07.716Z,20.00
2019-04-26T15:25:11.382Z,18.15
2019-04-26T15:35:07.759Z,18.27
2019-04-26T15:45:07.754Z,19.00
2019-04-26T15:55:08.521Z,18.55
2019-04-26T16:05:07.770Z,17.36
2019-04-26T16:15:13.043Z,17.03
2019-04-26T16:25:07.961Z,16.58
2019-04-26T16:35:07.776Z,16.47
2019-04-26T16:45:08.116Z,16.90
2019-04-26T16:55:17.859Z,16.95
2019-04-26T17:05:17.623Z,16.62
2019-04-26T17:15:07.744Z,16.25
2019-04-26T17:25:07.885Z,16.22
2019-04-26T17:35:07.789Z,16.17
2019-04-26T17:45:07.775Z,15.82
2019-04-26T17:55:11.213Z,15.65
2019-04-26T18:05:07.764Z,15.12
2019-04-26T18:15:11.518Z,14.05
2019-04-26T18:25:11.100Z,13.68
2019-04-26T18:35:09.257Z,13.72
2019-04-26T18:45:07.843Z,13.45
2019-04-26T18:55:07.713Z,13.07
2019-04-26T19:05:07.771Z,12.66
2019-04-26T19:15:07.878Z,12.26
2019-04-26T19:25:18.945Z,12.34
2019-04-26T19:35:12.078Z,12.51
2019-04-26T19:45:13.895Z,12.52
2019-04-26T19:55:11.283Z,12.39
2019-04-26T20:05:07.974Z,11.91
2019-04-26T20:15:07.809Z,11.27
2019-04-26T20:25:07.746Z,10.65
2019-04-26T20:35:07.684Z,10.46
2019-04-26T20:45:08.490Z,10.24
2019-04-26T20:55:07.769Z,10.19
2019-04-26T21:05:11.364Z,10.23
2019-04-26T21:15:07.822Z,10.15
2019-04-26T21:25:07.734Z,10.07
2019-04-26T21:35:07.789Z,9.81
2019-04-26T21:45:07.799Z,9.41
2019-04-26T21:55:07.797Z,9.20
2019-04-26T22:05:11.454Z,9.02
2019-04-26T22:15:07.815Z,8.48
2019-04-26T22:25:07.784Z,8.10
2019-04-26T22:35:07.733Z,7.88
2019-04-26T22:45:09.431Z,7.61
2019-04-26T22:55:07.751Z,7.38
2019-04-26T23:05:07.745Z,7.64
2019-04-26T23:15:07.805Z,9.06
2019-04-26T23:25:07.770Z,9.84
2019-04-26T23:35:07.755Z,10.42
2019-04-26T23:45:10.693Z,10.68
2019-04-26T23:55:09.177Z,10.86
